sensor_id;sensor_type;location;lat;lon;timestamp;P1;durP1;ratioP1;P2;durP2;ratioP2
75216;SDS011;63800;51.972;5.682;2023-07-16T00:01:56;5.60;;;2.22;;
75216;SDS011;63800;51.972;5.682;2023-07-16T00:04:22;4.32;;;2.25;;
75216;SDS011;63800;51.972;5.682;2023-07-16T00:06:47;6.65;;;2.15;;
75216;SDS011;63800;51.972;5.682;2023-07-16T00:09:13;6.53;;;2.50;;
75216;SDS011;63800;51.972;5.682;2023-07-16T00:11:38;5.40;;;2.30;;
75216;SDS011;63800;51.972;5.682;2023-07-16T00:14:04;6.40;;;2.40;;
75216;SDS011;63800;51.972;5.682;2023-07-16T00:16:30;5.57;;;2.28;;
75216;SDS011;63800;51.972;5.682;2023-07-16T00:18:55;6.50;;;2.40;;
75216;SDS011;63800;51.972;5.682;2023-07-16T00:21:21;7.28;;;2.53;;
75216;SDS011;63800;51.972;5.682;2023-07-16T00:23:46;6.97;;;2.28;;
75216;SDS011;63800;51.972;5.682;2023-07-16T00:26:12;4.18;;;2.80;;
75216;SDS011;63800;51.972;5.682;2023-07-16T00:28:38;6.70;;;2.30;;
75216;SDS011;63800;51.972;5.682;2023-07-16T00:31:03;4.38;;;2.10;;
75216;SDS011;63800;51.972;5.682;2023-07-16T00:33:29;5.13;;;2.45;;
75216;SDS011;63800;51.972;5.682;2023-07-16T00:35:54;4.18;;;2.13;;
75216;SDS011;63800;51.972;5.682;2023-07-16T00:38:20;5.45;;;2.33;;
75216;SDS011;63800;51.972;5.682;2023-07-16T00:40:46;3.65;;;2.30;;
75216;SDS011;63800;51.972;5.682;2023-07-16T00:43:12;6.13;;;2.40;;
75216;SDS011;63800;51.972;5.682;2023-07-16T00:45:40;5.05;;;2.45;;
75216;SDS011;63800;51.972;5.682;2023-07-16T00:48:07;5.63;;;2.70;;
75216;SDS011;63800;51.972;5.682;2023-07-16T00:50:33;6.63;;;2.80;;
75216;SDS011;63800;51.972;5.682;2023-07-16T00:53:04;7.93;;;3.10;;
75216;SDS011;63800;51.972;5.682;2023-07-16T00:55:31;5.30;;;2.80;;
75216;SDS011;63800;51.972;5.682;2023-07-16T00:58:00;5.22;;;2.90;;
75216;SDS011;63800;51.972;5.682;2023-07-16T01:00:37;6.32;;;3.13;;
75216;SDS011;63800;51.972;5.682;2023-07-16T01:03:05;5.53;;;3.35;;
75216;SDS011;63800;51.972;5.682;2023-07-16T01:05:42;4.75;;;2.53;;
75216;SDS011;63800;51.972;5.682;2023-07-16T01:08:09;7.15;;;2.58;;
75216;SDS011;63800;51.972;5.682;2023-07-16T01:10:37;6.15;;;3.00;;
75216;SDS011;63800;51.972;5.682;2023-07-16T01:13:04;5.68;;;2.80;;
75216;SDS011;63800;51.972;5.682;2023-07-16T01:15:29;7.53;;;3.50;;
75216;SDS011;63800;51.972;5.682;2023-07-16T01:17:55;7.88;;;2.97;;
75216;SDS011;63800;51.972;5.682;2023-07-16T01:20:20;7.68;;;2.88;;
75216;SDS011;63800;51.972;5.682;2023-07-16T01:28:16;7.07;;;2.80;;
75216;SDS011;63800;51.972;5.682;2023-07-16T01:30:44;5.45;;;2.63;;
75216;SDS011;63800;51.972;5.682;2023-07-16T01:33:11;7.20;;;3.25;;
75216;SDS011;63800;51.972;5.682;2023-07-16T01:35:38;4.95;;;2.20;;
75216;SDS011;63800;51.972;5.682;2023-07-16T01:38:05;8.25;;;2.75;;
75216;SDS011;63800;51.972;5.682;2023-07-16T01:40:32;5.22;;;2.92;;
75216;SDS011;63800;51.972;5.682;2023-07-16T01:42:57;7.18;;;2.75;;
75216;SDS011;63800;51.972;5.682;2023-07-16T01:45:23;5.78;;;2.53;;
75216;SDS011;63800;51.972;5.682;2023-07-16T01:47:50;6.60;;;2.65;;
75216;SDS011;63800;51.972;5.682;2023-07-16T01:50:25;9.07;;;2.80;;
75216;SDS011;63800;51.972;5.682;2023-07-16T01:52:51;7.20;;;2.95;;
75216;SDS011;63800;51.972;5.682;2023-07-16T01:55:16;5.97;;;2.50;;
75216;SDS011;63800;51.972;5.682;2023-07-16T01:57:42;5.50;;;2.80;;
75216;SDS011;63800;51.972;5.682;2023-07-16T02:00:07;6.45;;;2.90;;
75216;SDS011;63800;51.972;5.682;2023-07-16T02:02:33;5.55;;;2.70;;
75216;SDS011;63800;51.972;5.682;2023-07-16T02:04:59;6.75;;;2.80;;
75216;SDS011;63800;51.972;5.682;2023-07-16T02:07:24;8.35;;;2.90;;
75216;SDS011;63800;51.972;5.682;2023-07-16T02:09:50;6.32;;;3.03;;
75216;SDS011;63800;51.972;5.682;2023-07-16T02:12:15;6.38;;;3.05;;
75216;SDS011;63800;51.972;5.682;2023-07-16T02:14:41;5.32;;;2.92;;
75216;SDS011;63800;51.972;5.682;2023-07-16T02:17:06;6.95;;;3.00;;
75216;SDS011;63800;51.972;5.682;2023-07-16T02:19:32;7.38;;;3.40;;
75216;SDS011;63800;51.972;5.682;2023-07-16T02:21:57;7.22;;;3.03;;
75216;SDS011;63800;51.972;5.682;2023-07-16T02:24:23;6.60;;;2.92;;
75216;SDS011;63800;51.972;5.682;2023-07-16T02:26:48;9.40;;;3.00;;
75216;SDS011;63800;51.972;5.682;2023-07-16T02:29:13;6.40;;;2.65;;
75216;SDS011;63800;51.972;5.682;2023-07-16T02:31:39;7.30;;;2.90;;
75216;SDS011;63800;51.972;5.682;2023-07-16T02:34:04;5.93;;;3.03;;
75216;SDS011;63800;51.972;5.682;2023-07-16T02:36:30;5.55;;;3.00;;
75216;SDS011;63800;51.972;5.682;2023-07-16T02:38:55;8.05;;;3.22;;
75216;SDS011;63800;51.972;5.682;2023-07-16T02:41:20;7.25;;;3.25;;
75216;SDS011;63800;51.972;5.682;2023-07-16T02:43:46;6.50;;;3.08;;
75216;SDS011;63800;51.972;5.682;2023-07-16T02:46:12;9.38;;;3.38;;
75216;SDS011;63800;51.972;5.682;2023-07-16T02:48:37;8.63;;;3.00;;
75216;SDS011;63800;51.972;5.682;2023-07-16T02:51:02;12.10;;;3.33;;
75216;SDS011;63800;51.972;5.682;2023-07-16T02:53:28;7.53;;;3.15;;
75216;SDS011;63800;51.972;5.682;2023-07-16T02:55:53;12.27;;;3.92;;
75216;SDS011;63800;51.972;5.682;2023-07-16T02:58:19;7.35;;;3.20;;
75216;SDS011;63800;51.972;5.682;2023-07-16T03:00:44;9.88;;;3.60;;
75216;SDS011;63800;51.972;5.682;2023-07-16T03:03:10;8.90;;;3.40;;
75216;SDS011;63800;51.972;5.682;2023-07-16T03:05:35;5.65;;;2.80;;
75216;SDS011;63800;51.972;5.682;2023-07-16T03:08:01;7.38;;;3.00;;
75216;SDS011;63800;51.972;5.682;2023-07-16T03:10:26;9.35;;;3.40;;
75216;SDS011;63800;51.972;5.682;2023-07-16T03:12:52;6.90;;;2.90;;
75216;SDS011;63800;51.972;5.682;2023-07-16T03:15:18;4.20;;;2.63;;
75216;SDS011;63800;51.972;5.682;2023-07-16T03:17:43;5.22;;;2.80;;
75216;SDS011;63800;51.972;5.682;2023-07-16T03:20:09;6.65;;;3.00;;
75216;SDS011;63800;51.972;5.682;2023-07-16T03:22:35;7.07;;;3.03;;
75216;SDS011;63800;51.972;5.682;2023-07-16T03:25:00;8.77;;;3.63;;
75216;SDS011;63800;51.972;5.682;2023-07-16T03:27:27;9.27;;;3.50;;
75216;SDS011;63800;51.972;5.682;2023-07-16T03:29:52;8.55;;;3.50;;
75216;SDS011;63800;51.972;5.682;2023-07-16T03:32:17;7.22;;;3.22;;
75216;SDS011;63800;51.972;5.682;2023-07-16T03:34:43;7.90;;;3.72;;
75216;SDS011;63800;51.972;5.682;2023-07-16T03:37:08;7.82;;;3.72;;
75216;SDS011;63800;51.972;5.682;2023-07-16T03:39:34;8.68;;;3.67;;
75216;SDS011;63800;51.972;5.682;2023-07-16T03:41:59;8.90;;;3.35;;
75216;SDS011;63800;51.972;5.682;2023-07-16T03:44:24;6.78;;;3.67;;
75216;SDS011;63800;51.972;5.682;2023-07-16T03:46:50;6.05;;;3.83;;
75216;SDS011;63800;51.972;5.682;2023-07-16T03:49:15;8.13;;;4.03;;
75216;SDS011;63800;51.972;5.682;2023-07-16T03:51:41;5.65;;;3.75;;
75216;SDS011;63800;51.972;5.682;2023-07-16T03:54:06;7.25;;;3.92;;
75216;SDS011;63800;51.972;5.682;2023-07-16T03:56:32;10.38;;;4.07;;
75216;SDS011;63800;51.972;5.682;2023-07-16T03:58:57;9.13;;;3.88;;
75216;SDS011;63800;51.972;5.682;2023-07-16T04:01:23;7.63;;;4.05;;
75216;SDS011;63800;51.972;5.682;2023-07-16T04:03:48;9.70;;;3.90;;
75216;SDS011;63800;51.972;5.682;2023-07-16T04:06:13;6.45;;;3.47;;
75216;SDS011;63800;51.972;5.682;2023-07-16T04:08:39;5.90;;;3.88;;
75216;SDS011;63800;51.972;5.682;2023-07-16T04:11:05;8.20;;;3.38;;
75216;SDS011;63800;51.972;5.682;2023-07-16T04:13:31;7.88;;;3.67;;
75216;SDS011;63800;51.972;5.682;2023-07-16T04:15:56;8.00;;;3.60;;
75216;SDS011;63800;51.972;5.682;2023-07-16T04:18:23;5.95;;;3.17;;
75216;SDS011;63800;51.972;5.682;2023-07-16T04:20:49;8.07;;;4.03;;
75216;SDS011;63800;51.972;5.682;2023-07-16T04:23:14;8.30;;;3.47;;
75216;SDS011;63800;51.972;5.682;2023-07-16T04:25:40;9.75;;;3.60;;
75216;SDS011;63800;51.972;5.682;2023-07-16T04:28:05;8.30;;;3.65;;
75216;SDS011;63800;51.972;5.682;2023-07-16T04:30:31;7.03;;;4.15;;
75216;SDS011;63800;51.972;5.682;2023-07-16T04:32:57;7.32;;;3.53;;
75216;SDS011;63800;51.972;5.682;2023-07-16T04:35:22;7.75;;;4.05;;
75216;SDS011;63800;51.972;5.682;2023-07-16T04:37:47;7.72;;;3.70;;
75216;SDS011;63800;51.972;5.682;2023-07-16T04:40:13;8.27;;;3.53;;
75216;SDS011;63800;51.972;5.682;2023-07-16T04:42:38;7.55;;;4.05;;
75216;SDS011;63800;51.972;5.682;2023-07-16T04:45:04;8.85;;;4.10;;
75216;SDS011;63800;51.972;5.682;2023-07-16T04:47:30;8.90;;;4.25;;
75216;SDS011;63800;51.972;5.682;2023-07-16T04:49:57;6.57;;;3.78;;
75216;SDS011;63800;51.972;5.682;2023-07-16T04:52:23;7.25;;;4.28;;
75216;SDS011;63800;51.972;5.682;2023-07-16T04:54:49;8.35;;;3.80;;
75216;SDS011;63800;51.972;5.682;2023-07-16T04:57:14;9.88;;;4.47;;
75216;SDS011;63800;51.972;5.682;2023-07-16T04:59:39;8.07;;;3.80;;
75216;SDS011;63800;51.972;5.682;2023-07-16T05:02:05;8.25;;;3.97;;
75216;SDS011;63800;51.972;5.682;2023-07-16T05:04:31;7.45;;;4.03;;
75216;SDS011;63800;51.972;5.682;2023-07-16T05:07:03;8.02;;;4.45;;
75216;SDS011;63800;51.972;5.682;2023-07-16T05:09:29;7.35;;;4.25;;
75216;SDS011;63800;51.972;5.682;2023-07-16T05:11:55;7.50;;;4.28;;
75216;SDS011;63800;51.972;5.682;2023-07-16T05:14:20;8.55;;;4.85;;
75216;SDS011;63800;51.972;5.682;2023-07-16T05:16:46;10.13;;;4.10;;
75216;SDS011;63800;51.972;5.682;2023-07-16T05:19:11;10.35;;;5.00;;
75216;SDS011;63800;51.972;5.682;2023-07-16T05:21:37;7.13;;;4.57;;
75216;SDS011;63800;51.972;5.682;2023-07-16T05:24:03;11.20;;;4.80;;
75216;SDS011;63800;51.972;5.682;2023-07-16T05:26:29;9.50;;;4.65;;
75216;SDS011;63800;51.972;5.682;2023-07-16T05:28:54;10.32;;;5.00;;
75216;SDS011;63800;51.972;5.682;2023-07-16T05:31:20;11.70;;;5.93;;
75216;SDS011;63800;51.972;5.682;2023-07-16T05:33:45;8.20;;;4.53;;
75216;SDS011;63800;51.972;5.682;2023-07-16T05:36:11;8.45;;;4.80;;
75216;SDS011;63800;51.972;5.682;2023-07-16T05:38:36;9.70;;;5.30;;
75216;SDS011;63800;51.972;5.682;2023-07-16T05:41:05;9.63;;;5.00;;
75216;SDS011;63800;51.972;5.682;2023-07-16T05:43:31;9.32;;;4.65;;
75216;SDS011;63800;51.972;5.682;2023-07-16T05:45:57;10.55;;;5.25;;
75216;SDS011;63800;51.972;5.682;2023-07-16T05:48:23;10.13;;;4.55;;
75216;SDS011;63800;51.972;5.682;2023-07-16T05:50:49;11.38;;;5.63;;
75216;SDS011;63800;51.972;5.682;2023-07-16T05:53:15;13.68;;;5.30;;
75216;SDS011;63800;51.972;5.682;2023-07-16T05:55:40;13.40;;;5.38;;
75216;SDS011;63800;51.972;5.682;2023-07-16T05:58:06;13.07;;;5.82;;
75216;SDS011;63800;51.972;5.682;2023-07-16T06:00:31;10.98;;;6.53;;
75216;SDS011;63800;51.972;5.682;2023-07-16T06:02:57;11.18;;;5.97;;
75216;SDS011;63800;51.972;5.682;2023-07-16T06:05:23;13.15;;;5.85;;
75216;SDS011;63800;51.972;5.682;2023-07-16T06:07:49;12.57;;;6.38;;
75216;SDS011;63800;51.972;5.682;2023-07-16T06:10:15;10.02;;;5.32;;
75216;SDS011;63800;51.972;5.682;2023-07-16T06:12:40;9.07;;;4.72;;
75216;SDS011;63800;51.972;5.682;2023-07-16T06:15:06;10.25;;;5.30;;
75216;SDS011;63800;51.972;5.682;2023-07-16T06:17:32;13.18;;;5.80;;
75216;SDS011;63800;51.972;5.682;2023-07-16T06:19:57;12.10;;;5.68;;
75216;SDS011;63800;51.972;5.682;2023-07-16T06:22:23;8.90;;;5.05;;
75216;SDS011;63800;51.972;5.682;2023-07-16T06:24:48;9.75;;;4.97;;
75216;SDS011;63800;51.972;5.682;2023-07-16T06:27:14;10.70;;;5.47;;
75216;SDS011;63800;51.972;5.682;2023-07-16T06:29:39;10.93;;;5.10;;
75216;SDS011;63800;51.972;5.682;2023-07-16T06:32:05;9.38;;;5.72;;
75216;SDS011;63800;51.972;5.682;2023-07-16T06:34:31;11.30;;;6.03;;
75216;SDS011;63800;51.972;5.682;2023-07-16T06:36:56;12.65;;;5.95;;
75216;SDS011;63800;51.972;5.682;2023-07-16T06:39:22;11.23;;;5.57;;
75216;SDS011;63800;51.972;5.682;2023-07-16T06:41:47;11.13;;;5.82;;
75216;SDS011;63800;51.972;5.682;2023-07-16T06:44:13;10.00;;;5.75;;
75216;SDS011;63800;51.972;5.682;2023-07-16T06:46:38;10.27;;;5.97;;
75216;SDS011;63800;51.972;5.682;2023-07-16T06:49:05;11.50;;;5.68;;
75216;SDS011;63800;51.972;5.682;2023-07-16T06:51:31;11.48;;;6.18;;
75216;SDS011;63800;51.972;5.682;2023-07-16T06:53:57;16.95;;;5.78;;
75216;SDS011;63800;51.972;5.682;2023-07-16T06:56:23;12.75;;;5.65;;
75216;SDS011;63800;51.972;5.682;2023-07-16T06:58:48;13.07;;;6.68;;
75216;SDS011;63800;51.972;5.682;2023-07-16T07:01:13;12.52;;;5.97;;
75216;SDS011;63800;51.972;5.682;2023-07-16T07:03:39;9.40;;;5.38;;
75216;SDS011;63800;51.972;5.682;2023-07-16T07:06:04;16.30;;;6.00;;
75216;SDS011;63800;51.972;5.682;2023-07-16T07:08:30;10.82;;;6.50;;
75216;SDS011;63800;51.972;5.682;2023-07-16T07:10:56;10.82;;;6.03;;
75216;SDS011;63800;51.972;5.682;2023-07-16T07:13:21;9.57;;;5.90;;
75216;SDS011;63800;51.972;5.682;2023-07-16T07:15:47;10.48;;;5.90;;
75216;SDS011;63800;51.972;5.682;2023-07-16T07:18:13;13.98;;;6.72;;
75216;SDS011;63800;51.972;5.682;2023-07-16T07:20:41;12.13;;;8.05;;
75216;SDS011;63800;51.972;5.682;2023-07-16T07:23:07;14.18;;;7.40;;
75216;SDS011;63800;51.972;5.682;2023-07-16T07:25:32;16.17;;;8.82;;
75216;SDS011;63800;51.972;5.682;2023-07-16T07:27:58;13.02;;;7.00;;
75216;SDS011;63800;51.972;5.682;2023-07-16T07:30:23;9.38;;;6.25;;
75216;SDS011;63800;51.972;5.682;2023-07-16T07:32:48;11.30;;;6.88;;
75216;SDS011;63800;51.972;5.682;2023-07-16T07:35:14;15.40;;;7.43;;
75216;SDS011;63800;51.972;5.682;2023-07-16T07:37:39;11.40;;;7.15;;
75216;SDS011;63800;51.972;5.682;2023-07-16T07:40:05;14.35;;;7.35;;
75216;SDS011;63800;51.972;5.682;2023-07-16T07:42:32;15.68;;;10.75;;
75216;SDS011;63800;51.972;5.682;2023-07-16T07:44:58;14.40;;;9.13;;
75216;SDS011;63800;51.972;5.682;2023-07-16T07:47:23;11.43;;;6.22;;
75216;SDS011;63800;51.972;5.682;2023-07-16T07:49:49;12.35;;;7.00;;
75216;SDS011;63800;51.972;5.682;2023-07-16T07:52:15;11.55;;;7.85;;
75216;SDS011;63800;51.972;5.682;2023-07-16T07:54:41;14.00;;;11.55;;
75216;SDS011;63800;51.972;5.682;2023-07-16T07:57:06;13.00;;;7.32;;
75216;SDS011;63800;51.972;5.682;2023-07-16T07:59:32;13.95;;;9.15;;
75216;SDS011;63800;51.972;5.682;2023-07-16T08:01:58;14.00;;;8.77;;
75216;SDS011;63800;51.972;5.682;2023-07-16T08:04:23;15.52;;;8.80;;
75216;SDS011;63800;51.972;5.682;2023-07-16T08:06:50;14.07;;;11.20;;
75216;SDS011;63800;51.972;5.682;2023-07-16T08:09:16;12.98;;;8.52;;
75216;SDS011;63800;51.972;5.682;2023-07-16T08:11:41;15.25;;;9.70;;
75216;SDS011;63800;51.972;5.682;2023-07-16T08:14:07;13.13;;;7.38;;
75216;SDS011;63800;51.972;5.682;2023-07-16T08:16:32;15.13;;;9.88;;
75216;SDS011;63800;51.972;5.682;2023-07-16T08:18:57;9.40;;;7.72;;
75216;SDS011;63800;51.972;5.682;2023-07-16T08:21:23;13.27;;;6.90;;
75216;SDS011;63800;51.972;5.682;2023-07-16T08:23:49;10.38;;;6.88;;
75216;SDS011;63800;51.972;5.682;2023-07-16T08:26:15;12.07;;;7.40;;
75216;SDS011;63800;51.972;5.682;2023-07-16T08:28:41;11.65;;;7.93;;
75216;SDS011;63800;51.972;5.682;2023-07-16T08:31:06;15.88;;;10.77;;
75216;SDS011;63800;51.972;5.682;2023-07-16T08:33:32;12.55;;;5.88;;
75216;SDS011;63800;51.972;5.682;2023-07-16T08:35:57;10.80;;;5.80;;
75216;SDS011;63800;51.972;5.682;2023-07-16T08:38:23;9.55;;;5.82;;
75216;SDS011;63800;51.972;5.682;2023-07-16T08:40:48;10.80;;;5.93;;
75216;SDS011;63800;51.972;5.682;2023-07-16T08:43:14;12.95;;;5.72;;
75216;SDS011;63800;51.972;5.682;2023-07-16T08:45:41;9.82;;;5.70;;
75216;SDS011;63800;51.972;5.682;2023-07-16T08:48:10;8.95;;;5.45;;
75216;SDS011;63800;51.972;5.682;2023-07-16T08:50:36;12.68;;;5.78;;
75216;SDS011;63800;51.972;5.682;2023-07-16T08:53:06;10.13;;;5.65;;
75216;SDS011;63800;51.972;5.682;2023-07-16T08:55:32;9.63;;;5.50;;
75216;SDS011;63800;51.972;5.682;2023-07-16T08:57:59;11.73;;;5.90;;
75216;SDS011;63800;51.972;5.682;2023-07-16T09:00:26;11.35;;;6.10;;
75216;SDS011;63800;51.972;5.682;2023-07-16T09:02:52;11.88;;;5.68;;
75216;SDS011;63800;51.972;5.682;2023-07-16T09:05:19;12.98;;;5.82;;
75216;SDS011;63800;51.972;5.682;2023-07-16T09:07:46;11.30;;;5.82;;
75216;SDS011;63800;51.972;5.682;2023-07-16T09:10:11;11.00;;;5.80;;
75216;SDS011;63800;51.972;5.682;2023-07-16T09:12:46;8.73;;;6.57;;
75216;SDS011;63800;51.972;5.682;2023-07-16T09:15:15;11.38;;;5.78;;
75216;SDS011;63800;51.972;5.682;2023-07-16T09:17:42;9.82;;;6.05;;
75216;SDS011;63800;51.972;5.682;2023-07-16T09:20:11;9.48;;;6.00;;
75216;SDS011;63800;51.972;5.682;2023-07-16T09:22:36;10.82;;;5.85;;
75216;SDS011;63800;51.972;5.682;2023-07-16T09:25:03;11.63;;;5.68;;
75216;SDS011;63800;51.972;5.682;2023-07-16T09:27:28;8.70;;;5.65;;
75216;SDS011;63800;51.972;5.682;2023-07-16T09:29:54;10.50;;;6.18;;
75216;SDS011;63800;51.972;5.682;2023-07-16T09:32:20;12.30;;;6.43;;
75216;SDS011;63800;51.972;5.682;2023-07-16T09:34:48;11.38;;;5.80;;
75216;SDS011;63800;51.972;5.682;2023-07-16T09:37:14;10.77;;;5.57;;
75216;SDS011;63800;51.972;5.682;2023-07-16T09:39:41;12.25;;;6.00;;
75216;SDS011;63800;51.972;5.682;2023-07-16T09:42:07;10.77;;;5.05;;
75216;SDS011;63800;51.972;5.682;2023-07-16T09:44:33;10.50;;;5.47;;
75216;SDS011;63800;51.972;5.682;2023-07-16T09:46:59;10.75;;;5.50;;
75216;SDS011;63800;51.972;5.682;2023-07-16T09:49:26;8.23;;;4.85;;
75216;SDS011;63800;51.972;5.682;2023-07-16T09:51:54;9.75;;;5.30;;
75216;SDS011;63800;51.972;5.682;2023-07-16T09:54:21;10.25;;;5.63;;
75216;SDS011;63800;51.972;5.682;2023-07-16T09:56:50;12.35;;;6.32;;
75216;SDS011;63800;51.972;5.682;2023-07-16T09:59:21;10.65;;;6.05;;
75216;SDS011;63800;51.972;5.682;2023-07-16T10:01:49;11.25;;;5.93;;
75216;SDS011;63800;51.972;5.682;2023-07-16T10:04:17;11.90;;;6.32;;
75216;SDS011;63800;51.972;5.682;2023-07-16T10:06:59;9.48;;;5.25;;
75216;SDS011;63800;51.972;5.682;2023-07-16T10:09:35;10.00;;;5.53;;
75216;SDS011;63800;51.972;5.682;2023-07-16T10:12:07;10.48;;;5.85;;
75216;SDS011;63800;51.972;5.682;2023-07-16T10:14:38;12.57;;;6.82;;
75216;SDS011;63800;51.972;5.682;2023-07-16T10:17:05;9.07;;;5.53;;
75216;SDS011;63800;51.972;5.682;2023-07-16T10:19:30;8.27;;;5.65;;
75216;SDS011;63800;51.972;5.682;2023-07-16T10:21:56;9.95;;;5.10;;
75216;SDS011;63800;51.972;5.682;2023-07-16T10:24:22;9.27;;;5.45;;
75216;SDS011;63800;51.972;5.682;2023-07-16T10:26:52;9.25;;;5.45;;
75216;SDS011;63800;51.972;5.682;2023-07-16T10:29:17;12.43;;;5.82;;
75216;SDS011;63800;51.972;5.682;2023-07-16T10:31:43;10.45;;;5.85;;
75216;SDS011;63800;51.972;5.682;2023-07-16T10:34:10;14.23;;;5.57;;
75216;SDS011;63800;51.972;5.682;2023-07-16T10:36:36;10.93;;;5.65;;
75216;SDS011;63800;51.972;5.682;2023-07-16T10:39:05;8.63;;;5.00;;
75216;SDS011;63800;51.972;5.682;2023-07-16T10:41:31;11.02;;;5.10;;
75216;SDS011;63800;51.972;5.682;2023-07-16T10:44:00;9.68;;;5.15;;
75216;SDS011;63800;51.972;5.682;2023-07-16T10:46:26;10.65;;;5.13;;
75216;SDS011;63800;51.972;5.682;2023-07-16T10:48:52;10.27;;;5.28;;
75216;SDS011;63800;51.972;5.682;2023-07-16T10:51:17;10.93;;;5.00;;
75216;SDS011;63800;51.972;5.682;2023-07-16T10:53:49;10.85;;;5.82;;
75216;SDS011;63800;51.972;5.682;2023-07-16T10:56:15;9.75;;;5.32;;
75216;SDS011;63800;51.972;5.682;2023-07-16T10:58:41;10.90;;;5.53;;
75216;SDS011;63800;51.972;5.682;2023-07-16T11:01:10;9.20;;;4.97;;
75216;SDS011;63800;51.972;5.682;2023-07-16T11:03:36;10.52;;;5.60;;
75216;SDS011;63800;51.972;5.682;2023-07-16T11:06:08;9.60;;;5.18;;
75216;SDS011;63800;51.972;5.682;2023-07-16T11:08:34;8.52;;;4.80;;
75216;SDS011;63800;51.972;5.682;2023-07-16T11:10:59;9.52;;;4.75;;
75216;SDS011;63800;51.972;5.682;2023-07-16T11:13:26;9.65;;;4.68;;
75216;SDS011;63800;51.972;5.682;2023-07-16T11:15:52;8.70;;;5.07;;
75216;SDS011;63800;51.972;5.682;2023-07-16T11:18:17;8.52;;;5.13;;
75216;SDS011;63800;51.972;5.682;2023-07-16T11:20:43;10.60;;;5.15;;
75216;SDS011;63800;51.972;5.682;2023-07-16T11:23:09;11.40;;;4.93;;
75216;SDS011;63800;51.972;5.682;2023-07-16T11:25:35;8.40;;;4.82;;
75216;SDS011;63800;51.972;5.682;2023-07-16T11:28:01;9.35;;;5.00;;
75216;SDS011;63800;51.972;5.682;2023-07-16T11:30:27;8.15;;;5.03;;
75216;SDS011;63800;51.972;5.682;2023-07-16T11:32:53;10.20;;;5.18;;
75216;SDS011;63800;51.972;5.682;2023-07-16T11:35:20;9.07;;;5.53;;
75216;SDS011;63800;51.972;5.682;2023-07-16T11:37:46;10.02;;;5.15;;
75216;SDS011;63800;51.972;5.682;2023-07-16T11:40:16;9.50;;;5.72;;
75216;SDS011;63800;51.972;5.682;2023-07-16T11:42:43;12.07;;;5.47;;
75216;SDS011;63800;51.972;5.682;2023-07-16T11:45:16;10.70;;;5.45;;
75216;SDS011;63800;51.972;5.682;2023-07-16T11:47:45;10.38;;;5.55;;
75216;SDS011;63800;51.972;5.682;2023-07-16T11:50:11;10.45;;;5.18;;
75216;SDS011;63800;51.972;5.682;2023-07-16T11:52:38;13.23;;;5.60;;
75216;SDS011;63800;51.972;5.682;2023-07-16T11:55:04;10.98;;;5.30;;
75216;SDS011;63800;51.972;5.682;2023-07-16T11:57:30;9.07;;;5.10;;
75216;SDS011;63800;51.972;5.682;2023-07-16T11:59:55;10.18;;;4.93;;
75216;SDS011;63800;51.972;5.682;2023-07-16T12:02:21;10.90;;;5.32;;
75216;SDS011;63800;51.972;5.682;2023-07-16T12:04:47;9.48;;;5.30;;
75216;SDS011;63800;51.972;5.682;2023-07-16T12:07:13;9.23;;;5.47;;
75216;SDS011;63800;51.972;5.682;2023-07-16T12:09:38;9.40;;;5.18;;
75216;SDS011;63800;51.972;5.682;2023-07-16T12:12:04;10.35;;;5.00;;
75216;SDS011;63800;51.972;5.682;2023-07-16T12:14:30;10.70;;;5.20;;
75216;SDS011;63800;51.972;5.682;2023-07-16T12:16:56;10.02;;;5.85;;
75216;SDS011;63800;51.972;5.682;2023-07-16T12:19:22;11.15;;;5.60;;
75216;SDS011;63800;51.972;5.682;2023-07-16T12:21:47;11.82;;;6.07;;
75216;SDS011;63800;51.972;5.682;2023-07-16T12:24:12;10.10;;;5.85;;
75216;SDS011;63800;51.972;5.682;2023-07-16T12:26:38;10.60;;;5.10;;
75216;SDS011;63800;51.972;5.682;2023-07-16T12:29:03;10.25;;;5.53;;
75216;SDS011;63800;51.972;5.682;2023-07-16T12:31:30;12.55;;;5.75;;
75216;SDS011;63800;51.972;5.682;2023-07-16T12:33:56;7.85;;;4.80;;
75216;SDS011;63800;51.972;5.682;2023-07-16T12:36:22;7.55;;;5.13;;
75216;SDS011;63800;51.972;5.682;2023-07-16T12:38:47;9.52;;;5.32;;
75216;SDS011;63800;51.972;5.682;2023-07-16T12:41:13;7.72;;;5.15;;
75216;SDS011;63800;51.972;5.682;2023-07-16T12:43:40;8.02;;;5.25;;
75216;SDS011;63800;51.972;5.682;2023-07-16T12:46:05;10.70;;;5.65;;
75216;SDS011;63800;51.972;5.682;2023-07-16T12:48:31;7.97;;;5.10;;
75216;SDS011;63800;51.972;5.682;2023-07-16T12:50:57;7.55;;;4.78;;
75216;SDS011;63800;51.972;5.682;2023-07-16T12:53:23;8.15;;;5.15;;
75216;SDS011;63800;51.972;5.682;2023-07-16T12:55:49;6.70;;;4.47;;
75216;SDS011;63800;51.972;5.682;2023-07-16T12:58:15;7.00;;;4.53;;
75216;SDS011;63800;51.972;5.682;2023-07-16T13:00:40;8.60;;;5.30;;
75216;SDS011;63800;51.972;5.682;2023-07-16T13:03:06;9.35;;;5.15;;
75216;SDS011;63800;51.972;5.682;2023-07-16T13:05:33;8.57;;;5.47;;
75216;SDS011;63800;51.972;5.682;2023-07-16T13:07:59;8.70;;;5.25;;
75216;SDS011;63800;51.972;5.682;2023-07-16T13:10:24;7.35;;;4.43;;
75216;SDS011;63800;51.972;5.682;2023-07-16T13:12:49;7.50;;;4.53;;
75216;SDS011;63800;51.972;5.682;2023-07-16T13:15:15;8.60;;;5.47;;
75216;SDS011;63800;51.972;5.682;2023-07-16T13:17:40;8.75;;;5.20;;
75216;SDS011;63800;51.972;5.682;2023-07-16T13:20:06;9.35;;;5.32;;
75216;SDS011;63800;51.972;5.682;2023-07-16T13:22:32;11.43;;;5.35;;
75216;SDS011;63800;51.972;5.682;2023-07-16T13:24:57;8.38;;;4.78;;
75216;SDS011;63800;51.972;5.682;2023-07-16T13:27:23;8.63;;;4.78;;
75216;SDS011;63800;51.972;5.682;2023-07-16T13:29:49;7.85;;;4.60;;
75216;SDS011;63800;51.972;5.682;2023-07-16T13:32:14;6.32;;;4.18;;
75216;SDS011;63800;51.972;5.682;2023-07-16T13:34:40;6.82;;;4.22;;
75216;SDS011;63800;51.972;5.682;2023-07-16T13:37:06;6.70;;;4.10;;
75216;SDS011;63800;51.972;5.682;2023-07-16T13:39:31;5.18;;;3.50;;
75216;SDS011;63800;51.972;5.682;2023-07-16T13:41:57;4.70;;;3.10;;
75216;SDS011;63800;51.972;5.682;2023-07-16T13:44:22;6.00;;;3.75;;
75216;SDS011;63800;51.972;5.682;2023-07-16T13:46:48;6.43;;;3.53;;
75216;SDS011;63800;51.972;5.682;2023-07-16T13:49:13;6.43;;;3.45;;
75216;SDS011;63800;51.972;5.682;2023-07-16T13:51:39;5.57;;;4.07;;
75216;SDS011;63800;51.972;5.682;2023-07-16T13:54:04;7.22;;;4.10;;
75216;SDS011;63800;51.972;5.682;2023-07-16T13:56:30;6.82;;;3.47;;
75216;SDS011;63800;51.972;5.682;2023-07-16T13:58:55;7.82;;;3.47;;
75216;SDS011;63800;51.972;5.682;2023-07-16T14:01:21;5.28;;;3.47;;
75216;SDS011;63800;51.972;5.682;2023-07-16T14:03:48;5.88;;;3.20;;
75216;SDS011;63800;51.972;5.682;2023-07-16T14:06:13;6.38;;;3.30;;
75216;SDS011;63800;51.972;5.682;2023-07-16T14:08:38;6.90;;;3.60;;
75216;SDS011;63800;51.972;5.682;2023-07-16T14:11:04;5.95;;;3.03;;
75216;SDS011;63800;51.972;5.682;2023-07-16T14:13:30;5.03;;;3.13;;
75216;SDS011;63800;51.972;5.682;2023-07-16T14:15:55;4.03;;;3.00;;
75216;SDS011;63800;51.972;5.682;2023-07-16T14:18:21;4.38;;;2.63;;
75216;SDS011;63800;51.972;5.682;2023-07-16T14:20:46;6.10;;;3.03;;
75216;SDS011;63800;51.972;5.682;2023-07-16T14:23:11;5.72;;;2.78;;
75216;SDS011;63800;51.972;5.682;2023-07-16T14:25:37;5.22;;;2.78;;
75216;SDS011;63800;51.972;5.682;2023-07-16T14:28:02;6.70;;;2.80;;
75216;SDS011;63800;51.972;5.682;2023-07-16T14:30:28;6.88;;;2.85;;
75216;SDS011;63800;51.972;5.682;2023-07-16T14:32:54;4.70;;;2.58;;
75216;SDS011;63800;51.972;5.682;2023-07-16T14:35:20;6.63;;;3.03;;
75216;SDS011;63800;51.972;5.682;2023-07-16T14:37:46;4.82;;;2.40;;
75216;SDS011;63800;51.972;5.682;2023-07-16T14:40:12;3.97;;;2.40;;
75216;SDS011;63800;51.972;5.682;2023-07-16T14:42:37;5.53;;;2.40;;